sensor_id;sensor_type;location;lat;lon;timestamp;P1;durP1;ratioP1;P2;durP2;ratioP2
3201;SDS011;34843;48.744;8.958;2022-07-26T00:00:10;3.10;;;1.87;;
3201;SDS011;34843;48.744;8.958;2022-07-26T00:02:38;4.50;;;2.30;;
3201;SDS011;34843;48.744;8.958;2022-07-26T00:05:04;2.00;;;1.80;;
3201;SDS011;34843;48.744;8.958;2022-07-26T00:07:30;4.73;;;2.67;;
3201;SDS011;34843;48.744;8.958;2022-07-26T00:09:55;3.70;;;1.60;;
3201;SDS011;34843;48.744;8.958;2022-07-26T00:12:21;6.63;;;1.37;;
3201;SDS011;34843;48.744;8.958;2022-07-26T00:14:46;1.93;;;1.50;;
3201;SDS011;34843;48.744;8.958;2022-07-26T00:17:12;2.77;;;1.30;;
3201;SDS011;34843;48.744;8.958;2022-07-26T00:19:37;3.00;;;1.30;;
3201;SDS011;34843;48.744;8.958;2022-07-26T00:22:03;2.37;;;1.40;;
3201;SDS011;34843;48.744;8.958;2022-07-26T00:24:47;8.63;;;1.63;;
3201;SDS011;34843;48.744;8.958;2022-07-26T00:27:12;2.07;;;1.10;;
3201;SDS011;34843;48.744;8.958;2022-07-26T00:29:38;9.60;;;1.47;;
3201;SDS011;34843;48.744;8.958;2022-07-26T00:32:03;1.97;;;1.37;;
3201;SDS011;34843;48.744;8.958;2022-07-26T00:34:29;2.70;;;1.33;;
3201;SDS011;34843;48.744;8.958;2022-07-26T00:36:55;2.60;;;1.40;;
3201;SDS011;34843;48.744;8.958;2022-07-26T00:39:21;3.23;;;1.40;;
3201;SDS011;34843;48.744;8.958;2022-07-26T00:41:48;3.83;;;1.57;;
3201;SDS011;34843;48.744;8.958;2022-07-26T00:44:14;6.67;;;1.47;;
3201;SDS011;34843;48.744;8.958;2022-07-26T00:46:43;5.43;;;1.73;;
3201;SDS011;34843;48.744;8.958;2022-07-26T00:49:09;3.67;;;1.20;;
3201;SDS011;34843;48.744;8.958;2022-07-26T00:51:35;4.17;;;1.33;;
3201;SDS011;34843;48.744;8.958;2022-07-26T00:54:01;8.10;;;1.10;;
3201;SDS011;34843;48.744;8.958;2022-07-26T00:56:27;6.07;;;1.70;;
3201;SDS011;34843;48.744;8.958;2022-07-26T00:58:54;1.10;;;1.00;;
3201;SDS011;34843;48.744;8.958;2022-07-26T01:01:19;2.80;;;1.47;;
3201;SDS011;34843;48.744;8.958;2022-07-26T01:03:45;1.10;;;1.00;;
3201;SDS011;34843;48.744;8.958;2022-07-26T01:06:14;2.60;;;1.60;;
3201;SDS011;34843;48.744;8.958;2022-07-26T01:08:40;1.73;;;1.27;;
3201;SDS011;34843;48.744;8.958;2022-07-26T01:11:05;4.40;;;1.00;;
3201;SDS011;34843;48.744;8.958;2022-07-26T01:13:31;1.83;;;0.90;;
3201;SDS011;34843;48.744;8.958;2022-07-26T01:15:58;2.93;;;1.27;;
3201;SDS011;34843;48.744;8.958;2022-07-26T01:18:23;1.23;;;1.13;;
3201;SDS011;34843;48.744;8.958;2022-07-26T01:20:49;1.33;;;1.23;;
3201;SDS011;34843;48.744;8.958;2022-07-26T01:23:16;1.07;;;1.00;;
3201;SDS011;34843;48.744;8.958;2022-07-26T01:25:42;7.90;;;1.17;;
3201;SDS011;34843;48.744;8.958;2022-07-26T01:28:08;2.80;;;1.60;;
3201;SDS011;34843;48.744;8.958;2022-07-26T01:30:34;8.50;;;1.13;;
3201;SDS011;34843;48.744;8.958;2022-07-26T01:32:59;1.20;;;1.00;;
3201;SDS011;34843;48.744;8.958;2022-07-26T01:35:25;2.13;;;1.20;;
3201;SDS011;34843;48.744;8.958;2022-07-26T01:37:50;1.13;;;1.03;;
3201;SDS011;34843;48.744;8.958;2022-07-26T01:40:16;2.50;;;1.13;;
3201;SDS011;34843;48.744;8.958;2022-07-26T01:42:41;1.30;;;1.10;;
3201;SDS011;34843;48.744;8.958;2022-07-26T01:45:07;3.73;;;1.30;;
3201;SDS011;34843;48.744;8.958;2022-07-26T01:47:34;2.20;;;1.20;;
3201;SDS011;34843;48.744;8.958;2022-07-26T01:49:59;1.40;;;1.30;;
3201;SDS011;34843;48.744;8.958;2022-07-26T01:52:25;3.00;;;1.53;;
3201;SDS011;34843;48.744;8.958;2022-07-26T01:54:51;1.93;;;1.37;;
3201;SDS011;34843;48.744;8.958;2022-07-26T01:57:17;1.37;;;1.27;;
3201;SDS011;34843;48.744;8.958;2022-07-26T01:59:42;2.60;;;1.27;;
3201;SDS011;34843;48.744;8.958;2022-07-26T02:02:08;1.53;;;1.23;;
3201;SDS011;34843;48.744;8.958;2022-07-26T02:04:33;3.03;;;1.10;;
3201;SDS011;34843;48.744;8.958;2022-07-26T02:07:19;2.10;;;0.97;;
3201;SDS011;34843;48.744;8.958;2022-07-26T02:09:45;3.70;;;1.10;;
3201;SDS011;34843;48.744;8.958;2022-07-26T02:12:10;1.97;;;1.30;;
3201;SDS011;34843;48.744;8.958;2022-07-26T02:14:36;2.60;;;1.47;;
3201;SDS011;34843;48.744;8.958;2022-07-26T02:17:01;4.20;;;1.37;;
3201;SDS011;34843;48.744;8.958;2022-07-26T02:19:27;1.40;;;1.30;;
3201;SDS011;34843;48.744;8.958;2022-07-26T02:21:54;1.67;;;1.40;;
3201;SDS011;34843;48.744;8.958;2022-07-26T02:24:19;2.00;;;1.40;;
3201;SDS011;34843;48.744;8.958;2022-07-26T02:26:45;5.70;;;1.70;;
3201;SDS011;34843;48.744;8.958;2022-07-26T02:29:10;1.40;;;1.17;;
3201;SDS011;34843;48.744;8.958;2022-07-26T02:31:36;1.27;;;1.17;;
3201;SDS011;34843;48.744;8.958;2022-07-26T02:34:01;1.87;;;1.10;;
3201;SDS011;34843;48.744;8.958;2022-07-26T02:36:27;2.73;;;1.60;;
3201;SDS011;34843;48.744;8.958;2022-07-26T02:38:52;2.40;;;1.37;;
3201;SDS011;34843;48.744;8.958;2022-07-26T02:41:18;1.43;;;1.13;;
3201;SDS011;34843;48.744;8.958;2022-07-26T02:43:44;1.40;;;1.30;;
3201;SDS011;34843;48.744;8.958;2022-07-26T02:46:09;2.30;;;1.50;;
3201;SDS011;34843;48.744;8.958;2022-07-26T02:48:35;2.97;;;1.30;;
3201;SDS011;34843;48.744;8.958;2022-07-26T02:51:00;2.83;;;1.60;;
3201;SDS011;34843;48.744;8.958;2022-07-26T02:53:26;2.77;;;2.13;;
3201;SDS011;34843;48.744;8.958;2022-07-26T02:55:52;1.20;;;1.10;;
3201;SDS011;34843;48.744;8.958;2022-07-26T02:58:17;1.67;;;1.37;;
3201;SDS011;34843;48.744;8.958;2022-07-26T03:00:45;2.00;;;1.50;;
3201;SDS011;34843;48.744;8.958;2022-07-26T03:03:10;3.53;;;1.40;;
3201;SDS011;34843;48.744;8.958;2022-07-26T03:05:38;1.40;;;1.30;;
3201;SDS011;34843;48.744;8.958;2022-07-26T03:08:04;1.77;;;1.30;;
3201;SDS011;34843;48.744;8.958;2022-07-26T03:10:30;2.40;;;1.50;;
3201;SDS011;34843;48.744;8.958;2022-07-26T03:12:56;2.57;;;1.30;;
3201;SDS011;34843;48.744;8.958;2022-07-26T03:15:22;6.83;;;1.93;;
3201;SDS011;34843;48.744;8.958;2022-07-26T03:17:48;5.33;;;1.67;;
3201;SDS011;34843;48.744;8.958;2022-07-26T03:20:14;2.80;;;1.77;;
3201;SDS011;34843;48.744;8.958;2022-07-26T03:22:39;3.33;;;1.13;;
3201;SDS011;34843;48.744;8.958;2022-07-26T03:25:05;4.50;;;1.30;;
3201;SDS011;34843;48.744;8.958;2022-07-26T03:27:31;4.07;;;1.60;;
3201;SDS011;34843;48.744;8.958;2022-07-26T03:29:56;1.63;;;1.53;;
3201;SDS011;34843;48.744;8.958;2022-07-26T03:32:22;2.03;;;1.93;;
3201;SDS011;34843;48.744;8.958;2022-07-26T03:34:48;2.37;;;1.53;;
3201;SDS011;34843;48.744;8.958;2022-07-26T03:37:13;3.93;;;1.60;;
3201;SDS011;34843;48.744;8.958;2022-07-26T03:39:39;5.03;;;1.90;;
3201;SDS011;34843;48.744;8.958;2022-07-26T03:42:04;6.50;;;2.27;;
3201;SDS011;34843;48.744;8.958;2022-07-26T03:44:30;4.47;;;1.87;;
3201;SDS011;34843;48.744;8.958;2022-07-26T03:46:55;1.67;;;1.57;;
3201;SDS011;34843;48.744;8.958;2022-07-26T03:49:21;3.17;;;1.60;;
3201;SDS011;34843;48.744;8.958;2022-07-26T03:51:47;2.43;;;1.53;;
3201;SDS011;34843;48.744;8.958;2022-07-26T03:54:12;2.53;;;2.00;;
3201;SDS011;34843;48.744;8.958;2022-07-26T03:56:38;8.00;;;2.27;;
3201;SDS011;34843;48.744;8.958;2022-07-26T03:59:05;4.00;;;1.77;;
3201;SDS011;34843;48.744;8.958;2022-07-26T04:01:33;4.40;;;1.97;;
3201;SDS011;34843;48.744;8.958;2022-07-26T04:03:59;4.80;;;2.10;;
3201;SDS011;34843;48.744;8.958;2022-07-26T04:06:25;2.07;;;1.87;;
3201;SDS011;34843;48.744;8.958;2022-07-26T04:08:51;3.33;;;2.20;;
3201;SDS011;34843;48.744;8.958;2022-07-26T04:11:17;8.83;;;2.20;;
3201;SDS011;34843;48.744;8.958;2022-07-26T04:13:42;1.83;;;1.43;;
3201;SDS011;34843;48.744;8.958;2022-07-26T04:16:08;5.20;;;1.87;;
3201;SDS011;34843;48.744;8.958;2022-07-26T04:18:34;5.23;;;2.40;;
3201;SDS011;34843;48.744;8.958;2022-07-26T04:20:59;3.37;;;2.43;;
3201;SDS011;34843;48.744;8.958;2022-07-26T04:23:25;1.60;;;1.50;;
3201;SDS011;34843;48.744;8.958;2022-07-26T04:25:50;10.17;;;2.23;;
3201;SDS011;34843;48.744;8.958;2022-07-26T04:28:16;9.33;;;2.37;;
3201;SDS011;34843;48.744;8.958;2022-07-26T04:30:42;13.13;;;2.20;;
3201;SDS011;34843;48.744;8.958;2022-07-26T04:33:08;9.93;;;2.57;;
3201;SDS011;34843;48.744;8.958;2022-07-26T04:35:33;13.17;;;2.93;;
3201;SDS011;34843;48.744;8.958;2022-07-26T04:37:59;5.43;;;2.57;;
3201;SDS011;34843;48.744;8.958;2022-07-26T04:40:26;9.93;;;2.40;;
3201;SDS011;34843;48.744;8.958;2022-07-26T04:42:52;2.10;;;1.70;;
3201;SDS011;34843;48.744;8.958;2022-07-26T04:45:18;4.03;;;2.20;;
3201;SDS011;34843;48.744;8.958;2022-07-26T04:47:45;2.60;;;2.10;;
3201;SDS011;34843;48.744;8.958;2022-07-26T04:50:13;2.93;;;1.87;;
3201;SDS011;34843;48.744;8.958;2022-07-26T04:52:39;4.80;;;2.10;;
3201;SDS011;34843;48.744;8.958;2022-07-26T04:55:05;5.40;;;2.53;;
3201;SDS011;34843;48.744;8.958;2022-07-26T04:57:32;6.57;;;1.97;;
3201;SDS011;34843;48.744;8.958;2022-07-26T04:59:58;4.53;;;1.93;;
3201;SDS011;34843;48.744;8.958;2022-07-26T05:02:23;1.83;;;1.73;;
3201;SDS011;34843;48.744;8.958;2022-07-26T05:04:49;5.47;;;2.33;;
3201;SDS011;34843;48.744;8.958;2022-07-26T05:07:15;5.20;;;2.30;;
3201;SDS011;34843;48.744;8.958;2022-07-26T05:09:40;1.93;;;1.63;;
3201;SDS011;34843;48.744;8.958;2022-07-26T05:12:06;2.00;;;1.90;;
3201;SDS011;34843;48.744;8.958;2022-07-26T05:14:32;4.40;;;2.00;;
3201;SDS011;34843;48.744;8.958;2022-07-26T05:17:07;3.70;;;2.37;;
3201;SDS011;34843;48.744;8.958;2022-07-26T05:19:32;3.73;;;2.70;;
3201;SDS011;34843;48.744;8.958;2022-07-26T05:21:58;4.10;;;2.27;;
3201;SDS011;34843;48.744;8.958;2022-07-26T05:24:23;8.67;;;3.33;;
3201;SDS011;34843;48.744;8.958;2022-07-26T05:26:49;3.40;;;2.93;;
3201;SDS011;34843;48.744;8.958;2022-07-26T05:29:14;3.70;;;2.40;;
3201;SDS011;34843;48.744;8.958;2022-07-26T05:31:40;2.43;;;2.23;;
3201;SDS011;34843;48.744;8.958;2022-07-26T05:34:05;5.40;;;2.27;;
3201;SDS011;34843;48.744;8.958;2022-07-26T05:36:32;2.10;;;1.90;;
3201;SDS011;34843;48.744;8.958;2022-07-26T05:38:57;3.83;;;2.43;;
3201;SDS011;34843;48.744;8.958;2022-07-26T05:41:23;3.20;;;2.00;;
3201;SDS011;34843;48.744;8.958;2022-07-26T05:43:48;2.33;;;2.13;;
3201;SDS011;34843;48.744;8.958;2022-07-26T05:46:14;3.70;;;1.70;;
3201;SDS011;34843;48.744;8.958;2022-07-26T05:48:40;5.33;;;2.07;;
3201;SDS011;34843;48.744;8.958;2022-07-26T05:51:06;5.03;;;2.10;;
3201;SDS011;34843;48.744;8.958;2022-07-26T05:53:33;2.83;;;2.17;;
3201;SDS011;34843;48.744;8.958;2022-07-26T05:55:58;4.13;;;2.07;;
3201;SDS011;34843;48.744;8.958;2022-07-26T05:58:24;2.97;;;1.90;;
3201;SDS011;34843;48.744;8.958;2022-07-26T06:00:49;6.13;;;1.77;;
3201;SDS011;34843;48.744;8.958;2022-07-26T06:03:15;9.10;;;1.97;;
3201;SDS011;34843;48.744;8.958;2022-07-26T06:05:51;2.17;;;1.27;;
3201;SDS011;34843;48.744;8.958;2022-07-26T06:08:19;1.97;;;1.70;;
3201;SDS011;34843;48.744;8.958;2022-07-26T06:10:45;3.17;;;1.23;;
3201;SDS011;34843;48.744;8.958;2022-07-26T06:13:11;5.20;;;1.67;;
3201;SDS011;34843;48.744;8.958;2022-07-26T06:15:37;1.30;;;1.10;;
3201;SDS011;34843;48.744;8.958;2022-07-26T06:18:05;2.60;;;1.30;;
3201;SDS011;34843;48.744;8.958;2022-07-26T06:20:31;1.80;;;1.40;;
3201;SDS011;34843;48.744;8.958;2022-07-26T06:22:57;1.53;;;1.43;;
3201;SDS011;34843;48.744;8.958;2022-07-26T06:25:24;2.80;;;1.13;;
3201;SDS011;34843;48.744;8.958;2022-07-26T06:27:51;1.60;;;1.03;;
3201;SDS011;34843;48.744;8.958;2022-07-26T06:30:17;1.23;;;1.13;;
3201;SDS011;34843;48.744;8.958;2022-07-26T06:32:42;3.50;;;1.40;;
3201;SDS011;34843;48.744;8.958;2022-07-26T06:35:09;6.93;;;1.10;;
3201;SDS011;34843;48.744;8.958;2022-07-26T06:37:36;1.23;;;0.90;;
3201;SDS011;34843;48.744;8.958;2022-07-26T06:40:02;1.10;;;1.10;;
3201;SDS011;34843;48.744;8.958;2022-07-26T06:42:28;1.73;;;1.37;;
3201;SDS011;34843;48.744;8.958;2022-07-26T06:44:54;2.30;;;1.13;;
3201;SDS011;34843;48.744;8.958;2022-07-26T06:47:19;1.70;;;1.00;;
3201;SDS011;34843;48.744;8.958;2022-07-26T06:49:45;1.00;;;0.80;;
3201;SDS011;34843;48.744;8.958;2022-07-26T06:52:10;1.10;;;1.00;;
3201;SDS011;34843;48.744;8.958;2022-07-26T06:54:36;1.20;;;0.90;;
3201;SDS011;34843;48.744;8.958;2022-07-26T06:57:01;4.33;;;0.80;;
3201;SDS011;34843;48.744;8.958;2022-07-26T06:59:27;2.17;;;1.00;;
3201;SDS011;34843;48.744;8.958;2022-07-26T07:01:53;1.90;;;1.10;;
3201;SDS011;34843;48.744;8.958;2022-07-26T07:04:18;3.23;;;0.80;;
3201;SDS011;34843;48.744;8.958;2022-07-26T07:06:44;1.50;;;1.00;;
3201;SDS011;34843;48.744;8.958;2022-07-26T07:09:09;1.53;;;0.90;;
3201;SDS011;34843;48.744;8.958;2022-07-26T07:11:35;13.10;;;1.40;;
3201;SDS011;34843;48.744;8.958;2022-07-26T07:14:00;1.20;;;0.80;;
3201;SDS011;34843;48.744;8.958;2022-07-26T07:16:27;2.53;;;1.10;;
3201;SDS011;34843;48.744;8.958;2022-07-26T07:18:53;1.27;;;0.80;;
3201;SDS011;34843;48.744;8.958;2022-07-26T07:21:18;4.80;;;1.07;;
3201;SDS011;34843;48.744;8.958;2022-07-26T07:23:44;2.57;;;1.07;;
3201;SDS011;34843;48.744;8.958;2022-07-26T07:26:09;1.33;;;0.77;;
3201;SDS011;34843;48.744;8.958;2022-07-26T07:28:35;3.00;;;0.90;;
3201;SDS011;34843;48.744;8.958;2022-07-26T07:31:04;2.50;;;1.10;;
3201;SDS011;34843;48.744;8.958;2022-07-26T07:33:30;1.77;;;1.00;;
3201;SDS011;34843;48.744;8.958;2022-07-26T07:35:56;3.13;;;1.00;;
3201;SDS011;34843;48.744;8.958;2022-07-26T07:38:21;1.77;;;1.10;;
3201;SDS011;34843;48.744;8.958;2022-07-26T07:40:47;1.40;;;1.00;;
3201;SDS011;34843;48.744;8.958;2022-07-26T07:43:12;2.57;;;1.20;;
3201;SDS011;34843;48.744;8.958;2022-07-26T07:45:38;1.50;;;0.90;;
3201;SDS011;34843;48.744;8.958;2022-07-26T07:48:03;2.13;;;1.00;;
3201;SDS011;34843;48.744;8.958;2022-07-26T07:50:30;1.10;;;1.00;;
3201;SDS011;34843;48.744;8.958;2022-07-26T07:52:56;4.20;;;1.00;;
3201;SDS011;34843;48.744;8.958;2022-07-26T07:55:22;2.70;;;0.87;;
3201;SDS011;34843;48.744;8.958;2022-07-26T07:57:47;5.30;;;1.50;;
3201;SDS011;34843;48.744;8.958;2022-07-26T08:00:13;6.13;;;1.03;;
3201;SDS011;34843;48.744;8.958;2022-07-26T08:02:40;1.67;;;1.00;;
3201;SDS011;34843;48.744;8.958;2022-07-26T08:05:06;1.70;;;0.90;;
3201;SDS011;34843;48.744;8.958;2022-07-26T08:07:33;4.60;;;1.47;;
3201;SDS011;34843;48.744;8.958;2022-07-26T08:09:59;0.70;;;0.70;;
3201;SDS011;34843;48.744;8.958;2022-07-26T08:12:24;4.90;;;0.70;;
3201;SDS011;34843;48.744;8.958;2022-07-26T08:14:50;7.33;;;1.23;;
3201;SDS011;34843;48.744;8.958;2022-07-26T08:17:15;1.33;;;1.07;;
3201;SDS011;34843;48.744;8.958;2022-07-26T08:19:41;3.33;;;2.07;;
3201;SDS011;34843;48.744;8.958;2022-07-26T08:22:07;2.87;;;0.97;;
3201;SDS011;34843;48.744;8.958;2022-07-26T08:24:33;1.57;;;1.07;;
3201;SDS011;34843;48.744;8.958;2022-07-26T08:26:59;2.80;;;0.90;;
3201;SDS011;34843;48.744;8.958;2022-07-26T08:29:24;2.10;;;1.10;;
3201;SDS011;34843;48.744;8.958;2022-07-26T08:31:50;0.90;;;0.80;;
3201;SDS011;34843;48.744;8.958;2022-07-26T08:34:16;5.60;;;1.10;;
3201;SDS011;34843;48.744;8.958;2022-07-26T08:36:42;2.83;;;1.30;;
3201;SDS011;34843;48.744;8.958;2022-07-26T08:39:08;2.20;;;1.00;;
3201;SDS011;34843;48.744;8.958;2022-07-26T08:41:34;2.10;;;1.20;;
3201;SDS011;34843;48.744;8.958;2022-07-26T08:44:04;2.83;;;0.90;;
3201;SDS011;34843;48.744;8.958;2022-07-26T08:46:32;4.63;;;2.33;;
3201;SDS011;34843;48.744;8.958;2022-07-26T08:49:03;1.00;;;0.90;;
3201;SDS011;34843;48.744;8.958;2022-07-26T08:51:31;2.87;;;1.20;;
3201;SDS011;34843;48.744;8.958;2022-07-26T08:53:59;2.90;;;0.90;;
3201;SDS011;34843;48.744;8.958;2022-07-26T08:56:25;1.00;;;0.90;;
3201;SDS011;34843;48.744;8.958;2022-07-26T08:58:51;1.80;;;1.10;;
3201;SDS011;34843;48.744;8.958;2022-07-26T09:01:16;1.93;;;1.27;;
3201;SDS011;34843;48.744;8.958;2022-07-26T09:03:42;1.23;;;0.97;;
3201;SDS011;34843;48.744;8.958;2022-07-26T09:06:16;4.97;;;1.90;;
3201;SDS011;34843;48.744;8.958;2022-07-26T09:08:44;2.50;;;0.93;;
3201;SDS011;34843;48.744;8.958;2022-07-26T09:13:52;3.00;;;1.20;;
3201;SDS011;34843;48.744;8.958;2022-07-26T09:16:28;2.80;;;1.20;;
3201;SDS011;34843;48.744;8.958;2022-07-26T09:18:54;1.80;;;1.17;;
3201;SDS011;34843;48.744;8.958;2022-07-26T09:21:37;2.10;;;0.90;;
3201;SDS011;34843;48.744;8.958;2022-07-26T09:24:03;2.33;;;1.10;;
3201;SDS011;34843;48.744;8.958;2022-07-26T09:26:29;6.63;;;2.47;;
3201;SDS011;34843;48.744;8.958;2022-07-26T09:31:33;2.03;;;0.90;;
3201;SDS011;34843;48.744;8.958;2022-07-26T09:34:00;2.83;;;1.20;;
3201;SDS011;34843;48.744;8.958;2022-07-26T09:36:26;1.83;;;1.00;;
3201;SDS011;34843;48.744;8.958;2022-07-26T09:38:53;3.00;;;1.17;;
3201;SDS011;34843;48.744;8.958;2022-07-26T09:41:24;2.00;;;1.00;;
3201;SDS011;34843;48.744;8.958;2022-07-26T09:43:52;3.00;;;1.40;;
3201;SDS011;34843;48.744;8.958;2022-07-26T09:46:23;1.43;;;1.20;;
3201;SDS011;34843;48.744;8.958;2022-07-26T09:48:50;3.00;;;1.07;;
3201;SDS011;34843;48.744;8.958;2022-07-26T09:51:16;2.30;;;1.00;;
3201;SDS011;34843;48.744;8.958;2022-07-26T09:54:02;0.70;;;0.70;;
3201;SDS011;34843;48.744;8.958;2022-07-26T09:56:48;1.00;;;0.80;;
3201;SDS011;34843;48.744;8.958;2022-07-26T09:59:16;1.27;;;1.00;;
3201;SDS011;34843;48.744;8.958;2022-07-26T10:01:44;4.07;;;1.57;;
3201;SDS011;34843;48.744;8.958;2022-07-26T10:04:10;3.37;;;1.00;;
3201;SDS011;34843;48.744;8.958;2022-07-26T10:06:36;1.23;;;1.00;;
3201;SDS011;34843;48.744;8.958;2022-07-26T10:09:02;2.17;;;1.10;;
3201;SDS011;34843;48.744;8.958;2022-07-26T10:11:29;1.60;;;0.90;;
3201;SDS011;34843;48.744;8.958;2022-07-26T10:14:26;4.90;;;0.93;;
3201;SDS011;34843;48.744;8.958;2022-07-26T10:17:37;0.90;;;0.80;;
3201;SDS011;34843;48.744;8.958;2022-07-26T10:20:05;3.03;;;1.27;;
3201;SDS011;34843;48.744;8.958;2022-07-26T10:22:40;1.30;;;1.03;;
3201;SDS011;34843;48.744;8.958;2022-07-26T10:27:42;1.27;;;0.80;;
3201;SDS011;34843;48.744;8.958;2022-07-26T10:35:40;0.80;;;0.73;;
3201;SDS011;34843;48.744;8.958;2022-07-26T10:38:23;1.73;;;0.80;;
3201;SDS011;34843;48.744;8.958;2022-07-26T10:41:04;2.30;;;0.90;;
3201;SDS011;34843;48.744;8.958;2022-07-26T10:43:31;1.00;;;0.80;;
3201;SDS011;34843;48.744;8.958;2022-07-26T10:48:58;4.10;;;1.10;;
3201;SDS011;34843;48.744;8.958;2022-07-26T10:51:32;1.07;;;1.00;;
3201;SDS011;34843;48.744;8.958;2022-07-26T10:54:00;0.83;;;0.80;;
3201;SDS011;34843;48.744;8.958;2022-07-26T10:56:28;0.90;;;0.90;;
3201;SDS011;34843;48.744;8.958;2022-07-26T10:58:54;0.80;;;0.80;;
3201;SDS011;34843;48.744;8.958;2022-07-26T11:01:20;0.80;;;0.80;;
3201;SDS011;34843;48.744;8.958;2022-07-26T11:03:45;1.87;;;1.00;;
3201;SDS011;34843;48.744;8.958;2022-07-26T11:06:12;1.00;;;1.00;;
3201;SDS011;34843;48.744;8.958;2022-07-26T11:08:39;5.23;;;1.10;;
3201;SDS011;34843;48.744;8.958;2022-07-26T11:11:05;1.10;;;0.90;;
3201;SDS011;34843;48.744;8.958;2022-07-26T11:13:32;0.80;;;0.80;;
3201;SDS011;34843;48.744;8.958;2022-07-26T11:15:59;1.40;;;1.30;;
3201;SDS011;34843;48.744;8.958;2022-07-26T11:18:27;1.57;;;0.90;;
3201;SDS011;34843;48.744;8.958;2022-07-26T11:21:14;2.43;;;1.07;;
3201;SDS011;34843;48.744;8.958;2022-07-26T11:23:42;2.40;;;1.10;;
3201;SDS011;34843;48.744;8.958;2022-07-26T11:26:16;1.20;;;1.00;;
3201;SDS011;34843;48.744;8.958;2022-07-26T11:31:12;1.50;;;0.80;;
3201;SDS011;34843;48.744;8.958;2022-07-26T11:33:39;1.43;;;0.83;;
3201;SDS011;34843;48.744;8.958;2022-07-26T11:36:06;1.40;;;0.90;;
3201;SDS011;34843;48.744;8.958;2022-07-26T11:38:51;3.27;;;1.33;;
3201;SDS011;34843;48.744;8.958;2022-07-26T11:41:19;1.73;;;0.80;;
3201;SDS011;34843;48.744;8.958;2022-07-26T11:43:49;1.73;;;0.70;;
3201;SDS011;34843;48.744;8.958;2022-07-26T11:46:15;1.93;;;0.90;;
3201;SDS011;34843;48.744;8.958;2022-07-26T11:48:49;1.33;;;0.90;;
3201;SDS011;34843;48.744;8.958;2022-07-26T11:51:16;2.13;;;0.90;;
3201;SDS011;34843;48.744;8.958;2022-07-26T11:53:47;2.10;;;1.40;;
3201;SDS011;34843;48.744;8.958;2022-07-26T11:56:17;1.43;;;1.17;;
3201;SDS011;34843;48.744;8.958;2022-07-26T11:58:45;1.10;;;0.83;;
3201;SDS011;34843;48.744;8.958;2022-07-26T12:01:13;0.90;;;0.70;;
3201;SDS011;34843;48.744;8.958;2022-07-26T12:03:41;10.93;;;0.93;;
3201;SDS011;34843;48.744;8.958;2022-07-26T12:06:09;2.27;;;1.10;;
3201;SDS011;34843;48.744;8.958;2022-07-26T12:08:58;1.70;;;0.70;;
3201;SDS011;34843;48.744;8.958;2022-07-26T12:11:23;4.13;;;1.03;;
3201;SDS011;34843;48.744;8.958;2022-07-26T12:14:00;1.43;;;0.60;;
3201;SDS011;34843;48.744;8.958;2022-07-26T12:16:43;1.40;;;0.70;;
3201;SDS011;34843;48.744;8.958;2022-07-26T12:21:42;0.70;;;0.70;;
3201;SDS011;34843;48.744;8.958;2022-07-26T12:24:10;2.70;;;1.10;;
3201;SDS011;34843;48.744;8.958;2022-07-26T12:26:38;1.40;;;0.90;;
3201;SDS011;34843;48.744;8.958;2022-07-26T12:29:04;0.90;;;0.90;;
3201;SDS011;34843;48.744;8.958;2022-07-26T12:32:02;3.10;;;1.20;;
3201;SDS011;34843;48.744;8.958;2022-07-26T12:34:36;3.40;;;1.00;;
3201;SDS011;34843;48.744;8.958;2022-07-26T12:37:07;1.70;;;0.97;;
3201;SDS011;34843;48.744;8.958;2022-07-26T12:39:33;0.90;;;0.87;;
3201;SDS011;34843;48.744;8.958;2022-07-26T12:41:59;1.00;;;0.80;;
3201;SDS011;34843;48.744;8.958;2022-07-26T12:44:43;2.13;;;0.80;;
3201;SDS011;34843;48.744;8.958;2022-07-26T12:47:09;2.20;;;0.80;;
3201;SDS011;34843;48.744;8.958;2022-07-26T12:49:35;4.50;;;0.97;;
3201;SDS011;34843;48.744;8.958;2022-07-26T12:52:00;1.13;;;0.80;;
3201;SDS011;34843;48.744;8.958;2022-07-26T12:54:26;1.43;;;0.70;;
3201;SDS011;34843;48.744;8.958;2022-07-26T12:56:51;1.43;;;0.93;;
3201;SDS011;34843;48.744;8.958;2022-07-26T12:59:17;1.00;;;0.80;;
3201;SDS011;34843;48.744;8.958;2022-07-26T13:01:42;1.87;;;0.80;;
3201;SDS011;34843;48.744;8.958;2022-07-26T13:04:08;1.10;;;0.90;;
3201;SDS011;34843;48.744;8.958;2022-07-26T13:06:34;0.80;;;0.80;;
3201;SDS011;34843;48.744;8.958;2022-07-26T13:08:59;1.30;;;0.90;;
3201;SDS011;34843;48.744;8.958;2022-07-26T13:11:25;0.97;;;0.73;;
3201;SDS011;34843;48.744;8.958;2022-07-26T13:13:50;1.10;;;0.80;;
3201;SDS011;34843;48.744;8.958;2022-07-26T13:16:16;0.70;;;0.60;;
3201;SDS011;34843;48.744;8.958;2022-07-26T13:18:41;0.70;;;0.70;;
3201;SDS011;34843;48.744;8.958;2022-07-26T13:21:07;0.80;;;0.80;;
3201;SDS011;34843;48.744;8.958;2022-07-26T13:23:33;2.40;;;0.80;;
3201;SDS011;34843;48.744;8.958;2022-07-26T13:25:58;1.77;;;1.17;;
3201;SDS011;34843;48.744;8.958;2022-07-26T13:28:23;0.90;;;0.70;;
3201;SDS011;34843;48.744;8.958;2022-07-26T13:30:49;1.40;;;1.03;;
3201;SDS011;34843;48.744;8.958;2022-07-26T13:33:15;2.40;;;0.90;;
3201;SDS011;34843;48.744;8.958;2022-07-26T13:35:41;1.10;;;1.00;;
3201;SDS011;34843;48.744;8.958;2022-07-26T13:38:07;1.87;;;1.00;;
3201;SDS011;34843;48.744;8.958;2022-07-26T13:40:33;0.97;;;0.83;;
3201;SDS011;34843;48.744;8.958;2022-07-26T13:42:59;0.97;;;0.90;;
3201;SDS011;34843;48.744;8.958;2022-07-26T13:45:24;3.33;;;0.80;;
3201;SDS011;34843;48.744;8.958;2022-07-26T13:47:50;1.73;;;0.90;;
3201;SDS011;34843;48.744;8.958;2022-07-26T13:50:15;1.23;;;1.00;;
3201;SDS011;34843;48.744;8.958;2022-07-26T13:52:41;0.80;;;0.80;;
3201;SDS011;34843;48.744;8.958;2022-07-26T13:55:07;1.23;;;0.83;;
3201;SDS011;34843;48.744;8.958;2022-07-26T13:57:32;1.07;;;0.97;;
3201;SDS011;34843;48.744;8.958;2022-07-26T13:59:58;1.00;;;0.80;;
3201;SDS011;34843;48.744;8.958;2022-07-26T14:02:23;1.47;;;0.93;;
3201;SDS011;34843;48.744;8.958;2022-07-26T14:04:49;1.00;;;0.90;;
3201;SDS011;34843;48.744;8.958;2022-07-26T14:07:15;1.50;;;1.20;;
3201;SDS011;34843;48.744;8.958;2022-07-26T14:09:40;2.50;;;0.90;;
3201;SDS011;34843;48.744;8.958;2022-07-26T14:12:06;0.80;;;0.80;;
3201;SDS011;34843;48.744;8.958;2022-07-26T14:14:31;1.23;;;0.80;;
3201;SDS011;34843;48.744;8.958;2022-07-26T14:16:57;0.90;;;0.70;;
3201;SDS011;34843;48.744;8.958;2022-07-26T14:19:22;1.10;;;0.70;;
3201;SDS011;34843;48.744;8.958;2022-07-26T14:21:48;0.70;;;0.63;;
3201;SDS011;34843;48.744;8.958;2022-07-26T14:24:15;1.27;;;0.70;;
3201;SDS011;34843;48.744;8.958;2022-07-26T14:26:41;0.90;;;0.90;;
3201;SDS011;34843;48.744;8.958;2022-07-26T14:29:06;2.00;;;0.70;;
3201;SDS011;34843;48.744;8.958;2022-07-26T14:31:32;0.70;;;0.70;;
3201;SDS011;34843;48.744;8.958;2022-07-26T14:33:57;0.70;;;0.60;;
3201;SDS011;34843;48.744;8.958;2022-07-26T14:36:23;1.33;;;0.97;;
3201;SDS011;34843;48.744;8.958;2022-07-26T14:38:49;1.50;;;0.80;;
3201;SDS011;34843;48.744;8.958;2022-07-26T14:41:14;0.80;;;0.77;;
3201;SDS011;34843;48.744;8.958;2022-07-26T14:43:40;1.57;;;0.97;;
3201;SDS011;34843;48.744;8.958;2022-07-26T14:46:07;1.40;;;0.80;;
3201;SDS011;34843;48.744;8.958;2022-07-26T14:48:33;1.03;;;0.93;;
3201;SDS011;34843;48.744;8.958;2022-07-26T14:50:58;0.73;;;0.63;;
3201;SDS011;34843;48.744;8.958;2022-07-26T14:53:24;0.70;;;0.70;;
3201;SDS011;34843;48.744;8.958;2022-07-26T14:55:49;2.70;;;0.80;;
3201;SDS011;34843;48.744;8.958;2022-07-26T14:58:16;1.60;;;1.10;;
3201;SDS011;34843;48.744;8.958;2022-07-26T15:00:41;1.33;;;0.87;;
3201;SDS011;34843;48.744;8.958;2022-07-26T15:03:07;1.10;;;0.93;;
3201;SDS011;34843;48.744;8.958;2022-07-26T15:05:34;3.27;;;0.70;;
3201;SDS011;34843;48.744;8.958;2022-07-26T15:08:00;0.90;;;0.80;;
3201;SDS011;34843;48.744;8.958;2022-07-26T15:10:26;0.97;;;0.87;;
3201;SDS011;34843;48.744;8.958;2022-07-26T15:12:58;1.80;;;0.80;;
3201;SDS011;34843;48.744;8.958;2022-07-26T15:15:26;4.03;;;0.80;;
3201;SDS011;34843;48.744;8.958;2022-07-26T15:17:52;1.00;;;0.70;;
3201;SDS011;34843;48.744;8.958;2022-07-26T15:20:18;0.70;;;0.70;;